sensor_id;sensor_type;location;lat;lon;timestamp;P1;durP1;ratioP1;P2;durP2;ratioP2
20283;SDS011;10301;50.832;4.080;2023-05-07T00:01:56;14.57;;;7.30;;
20283;SDS011;10301;50.832;4.080;2023-05-07T00:04:22;16.77;;;6.85;;
20283;SDS011;10301;50.832;4.080;2023-05-07T00:06:47;16.27;;;6.50;;
20283;SDS011;10301;50.832;4.080;2023-05-07T00:09:13;12.68;;;6.70;;
20283;SDS011;10301;50.832;4.080;2023-05-07T00:11:39;12.90;;;6.18;;
20283;SDS011;10301;50.832;4.080;2023-05-07T00:14:05;18.65;;;6.60;;
20283;SDS011;10301;50.832;4.080;2023-05-07T00:16:31;16.52;;;6.70;;
20283;SDS011;10301;50.832;4.080;2023-05-07T00:18:56;14.43;;;6.45;;
20283;SDS011;10301;50.832;4.080;2023-05-07T00:21:22;12.00;;;5.72;;
20283;SDS011;10301;50.832;4.080;2023-05-07T00:23:51;15.27;;;6.03;;
20283;SDS011;10301;50.832;4.080;2023-05-07T00:26:17;12.63;;;5.88;;
20283;SDS011;10301;50.832;4.080;2023-05-07T00:28:43;13.27;;;5.95;;
20283;SDS011;10301;50.832;4.080;2023-05-07T00:31:09;12.85;;;6.10;;
20283;SDS011;10301;50.832;4.080;2023-05-07T00:33:35;14.57;;;5.90;;
20283;SDS011;10301;50.832;4.080;2023-05-07T00:36:00;12.48;;;5.70;;
20283;SDS011;10301;50.832;4.080;2023-05-07T00:38:26;13.00;;;5.85;;
20283;SDS011;10301;50.832;4.080;2023-05-07T00:40:53;13.40;;;5.97;;
20283;SDS011;10301;50.832;4.080;2023-05-07T00:43:19;13.35;;;5.82;;
20283;SDS011;10301;50.832;4.080;2023-05-07T00:45:45;16.98;;;6.53;;
20283;SDS011;10301;50.832;4.080;2023-05-07T00:48:11;13.55;;;6.22;;
20283;SDS011;10301;50.832;4.080;2023-05-07T00:50:37;16.23;;;6.60;;
20283;SDS011;10301;50.832;4.080;2023-05-07T00:53:03;17.00;;;7.50;;
20283;SDS011;10301;50.832;4.080;2023-05-07T00:55:29;15.65;;;7.07;;
20283;SDS011;10301;50.832;4.080;2023-05-07T00:57:55;15.00;;;7.03;;
20283;SDS011;10301;50.832;4.080;2023-05-07T01:00:21;13.43;;;7.03;;
20283;SDS011;10301;50.832;4.080;2023-05-07T01:02:47;14.35;;;5.82;;
20283;SDS011;10301;50.832;4.080;2023-05-07T01:05:13;15.77;;;6.53;;
20283;SDS011;10301;50.832;4.080;2023-05-07T01:07:41;15.40;;;6.60;;
20283;SDS011;10301;50.832;4.080;2023-05-07T01:10:08;11.65;;;5.97;;
20283;SDS011;10301;50.832;4.080;2023-05-07T01:12:35;13.27;;;5.80;;
20283;SDS011;10301;50.832;4.080;2023-05-07T01:15:04;13.05;;;6.47;;
20283;SDS011;10301;50.832;4.080;2023-05-07T01:17:35;15.73;;;6.13;;
20283;SDS011;10301;50.832;4.080;2023-05-07T01:20:01;10.85;;;6.18;;
20283;SDS011;10301;50.832;4.080;2023-05-07T01:22:33;14.90;;;6.40;;
20283;SDS011;10301;50.832;4.080;2023-05-07T01:25:02;10.95;;;6.38;;
20283;SDS011;10301;50.832;4.080;2023-05-07T01:27:28;12.50;;;6.53;;
20283;SDS011;10301;50.832;4.080;2023-05-07T01:29:54;15.38;;;6.20;;
20283;SDS011;10301;50.832;4.080;2023-05-07T01:32:31;12.15;;;6.28;;
20283;SDS011;10301;50.832;4.080;2023-05-07T01:35:05;12.40;;;5.85;;
20283;SDS011;10301;50.832;4.080;2023-05-07T01:37:33;14.27;;;6.45;;
20283;SDS011;10301;50.832;4.080;2023-05-07T01:39:59;12.93;;;6.70;;
20283;SDS011;10301;50.832;4.080;2023-05-07T01:42:26;14.13;;;6.25;;
20283;SDS011;10301;50.832;4.080;2023-05-07T01:44:52;13.93;;;6.88;;
20283;SDS011;10301;50.832;4.080;2023-05-07T01:47:18;15.18;;;6.47;;
20283;SDS011;10301;50.832;4.080;2023-05-07T01:49:45;12.23;;;6.38;;
20283;SDS011;10301;50.832;4.080;2023-05-07T01:52:10;14.55;;;6.93;;
20283;SDS011;10301;50.832;4.080;2023-05-07T01:54:36;10.82;;;5.95;;
20283;SDS011;10301;50.832;4.080;2023-05-07T01:57:02;13.55;;;6.57;;
20283;SDS011;10301;50.832;4.080;2023-05-07T01:59:28;13.60;;;6.72;;
20283;SDS011;10301;50.832;4.080;2023-05-07T02:01:53;13.32;;;6.97;;
20283;SDS011;10301;50.832;4.080;2023-05-07T02:04:19;15.35;;;6.28;;
20283;SDS011;10301;50.832;4.080;2023-05-07T02:06:45;13.05;;;6.22;;
20283;SDS011;10301;50.832;4.080;2023-05-07T02:09:11;12.20;;;6.03;;
20283;SDS011;10301;50.832;4.080;2023-05-07T02:11:36;9.80;;;6.03;;
20283;SDS011;10301;50.832;4.080;2023-05-07T02:14:02;12.73;;;6.55;;
20283;SDS011;10301;50.832;4.080;2023-05-07T02:16:28;15.90;;;6.22;;
20283;SDS011;10301;50.832;4.080;2023-05-07T02:18:53;16.15;;;6.32;;
20283;SDS011;10301;50.832;4.080;2023-05-07T02:21:19;10.23;;;6.38;;
20283;SDS011;10301;50.832;4.080;2023-05-07T02:23:45;16.67;;;6.95;;
20283;SDS011;10301;50.832;4.080;2023-05-07T02:26:11;11.98;;;6.43;;
20283;SDS011;10301;50.832;4.080;2023-05-07T02:28:36;17.75;;;6.60;;
20283;SDS011;10301;50.832;4.080;2023-05-07T02:31:05;15.15;;;6.78;;
20283;SDS011;10301;50.832;4.080;2023-05-07T02:33:31;12.50;;;6.38;;
20283;SDS011;10301;50.832;4.080;2023-05-07T02:35:57;14.07;;;6.53;;
20283;SDS011;10301;50.832;4.080;2023-05-07T02:38:30;15.15;;;7.07;;
20283;SDS011;10301;50.832;4.080;2023-05-07T02:40:55;11.98;;;7.00;;
20283;SDS011;10301;50.832;4.080;2023-05-07T02:43:21;12.40;;;6.47;;
20283;SDS011;10301;50.832;4.080;2023-05-07T02:45:46;13.50;;;6.80;;
20283;SDS011;10301;50.832;4.080;2023-05-07T02:48:12;12.38;;;6.95;;
20283;SDS011;10301;50.832;4.080;2023-05-07T02:50:38;13.32;;;6.95;;
20283;SDS011;10301;50.832;4.080;2023-05-07T02:53:03;14.20;;;7.60;;
20283;SDS011;10301;50.832;4.080;2023-05-07T02:55:29;16.92;;;7.15;;
20283;SDS011;10301;50.832;4.080;2023-05-07T02:57:55;13.35;;;6.18;;
20283;SDS011;10301;50.832;4.080;2023-05-07T03:00:21;11.43;;;6.45;;
20283;SDS011;10301;50.832;4.080;2023-05-07T03:02:47;15.45;;;7.65;;
20283;SDS011;10301;50.832;4.080;2023-05-07T03:05:12;14.45;;;6.65;;
20283;SDS011;10301;50.832;4.080;2023-05-07T03:07:39;14.73;;;6.65;;
20283;SDS011;10301;50.832;4.080;2023-05-07T03:10:06;13.07;;;6.82;;
20283;SDS011;10301;50.832;4.080;2023-05-07T03:12:31;14.45;;;7.35;;
20283;SDS011;10301;50.832;4.080;2023-05-07T03:14:57;19.90;;;7.80;;
20283;SDS011;10301;50.832;4.080;2023-05-07T03:17:23;15.90;;;7.22;;
20283;SDS011;10301;50.832;4.080;2023-05-07T03:19:48;15.88;;;7.43;;
20283;SDS011;10301;50.832;4.080;2023-05-07T03:22:14;15.27;;;7.60;;
20283;SDS011;10301;50.832;4.080;2023-05-07T03:24:40;12.88;;;6.90;;
20283;SDS011;10301;50.832;4.080;2023-05-07T03:27:05;15.25;;;7.47;;
20283;SDS011;10301;50.832;4.080;2023-05-07T03:29:31;18.92;;;7.13;;
20283;SDS011;10301;50.832;4.080;2023-05-07T03:31:57;18.58;;;7.57;;
20283;SDS011;10301;50.832;4.080;2023-05-07T03:34:22;16.98;;;7.85;;
20283;SDS011;10301;50.832;4.080;2023-05-07T03:36:48;16.63;;;7.00;;
20283;SDS011;10301;50.832;4.080;2023-05-07T03:39:14;14.90;;;7.43;;
20283;SDS011;10301;50.832;4.080;2023-05-07T03:41:40;13.68;;;6.88;;
20283;SDS011;10301;50.832;4.080;2023-05-07T03:44:06;14.02;;;6.97;;
20283;SDS011;10301;50.832;4.080;2023-05-07T03:46:32;14.90;;;7.18;;
20283;SDS011;10301;50.832;4.080;2023-05-07T03:48:58;16.00;;;7.68;;
20283;SDS011;10301;50.832;4.080;2023-05-07T03:51:24;15.95;;;7.03;;
20283;SDS011;10301;50.832;4.080;2023-05-07T03:53:50;12.57;;;6.95;;
20283;SDS011;10301;50.832;4.080;2023-05-07T03:56:19;11.90;;;7.22;;
20283;SDS011;10301;50.832;4.080;2023-05-07T03:58:46;16.25;;;7.47;;
20283;SDS011;10301;50.832;4.080;2023-05-07T04:01:12;11.23;;;7.30;;
20283;SDS011;10301;50.832;4.080;2023-05-07T04:03:38;13.63;;;6.70;;
20283;SDS011;10301;50.832;4.080;2023-05-07T04:06:03;12.48;;;6.80;;
20283;SDS011;10301;50.832;4.080;2023-05-07T04:08:29;13.02;;;6.72;;
20283;SDS011;10301;50.832;4.080;2023-05-07T04:10:58;15.18;;;7.07;;
20283;SDS011;10301;50.832;4.080;2023-05-07T04:13:25;17.27;;;7.68;;
20283;SDS011;10301;50.832;4.080;2023-05-07T04:15:51;14.80;;;7.30;;
20283;SDS011;10301;50.832;4.080;2023-05-07T04:18:17;16.50;;;7.18;;
20283;SDS011;10301;50.832;4.080;2023-05-07T04:20:43;13.20;;;6.47;;
20283;SDS011;10301;50.832;4.080;2023-05-07T04:23:08;13.30;;;6.50;;
20283;SDS011;10301;50.832;4.080;2023-05-07T04:25:34;18.38;;;7.03;;
20283;SDS011;10301;50.832;4.080;2023-05-07T04:28:00;12.85;;;6.72;;
20283;SDS011;10301;50.832;4.080;2023-05-07T04:30:26;15.88;;;6.70;;
20283;SDS011;10301;50.832;4.080;2023-05-07T04:32:51;16.45;;;6.60;;
20283;SDS011;10301;50.832;4.080;2023-05-07T04:35:17;13.77;;;6.53;;
20283;SDS011;10301;50.832;4.080;2023-05-07T04:37:43;15.90;;;6.90;;
20283;SDS011;10301;50.832;4.080;2023-05-07T04:40:09;16.30;;;8.10;;
20283;SDS011;10301;50.832;4.080;2023-05-07T04:42:35;16.05;;;7.35;;
20283;SDS011;10301;50.832;4.080;2023-05-07T04:45:01;15.63;;;7.93;;
20283;SDS011;10301;50.832;4.080;2023-05-07T04:47:27;15.20;;;7.35;;
20283;SDS011;10301;50.832;4.080;2023-05-07T04:49:53;15.02;;;8.10;;
20283;SDS011;10301;50.832;4.080;2023-05-07T04:52:18;16.30;;;7.03;;
20283;SDS011;10301;50.832;4.080;2023-05-07T04:54:44;14.90;;;8.07;;
20283;SDS011;10301;50.832;4.080;2023-05-07T04:57:10;13.02;;;7.28;;
20283;SDS011;10301;50.832;4.080;2023-05-07T04:59:35;14.93;;;7.10;;
20283;SDS011;10301;50.832;4.080;2023-05-07T05:02:01;15.88;;;7.32;;
20283;SDS011;10301;50.832;4.080;2023-05-07T05:04:29;13.85;;;7.68;;
20283;SDS011;10301;50.832;4.080;2023-05-07T05:06:55;9.93;;;6.40;;
20283;SDS011;10301;50.832;4.080;2023-05-07T05:09:20;17.40;;;7.07;;
20283;SDS011;10301;50.832;4.080;2023-05-07T05:11:46;14.93;;;7.03;;
20283;SDS011;10301;50.832;4.080;2023-05-07T05:14:12;11.48;;;7.28;;
20283;SDS011;10301;50.832;4.080;2023-05-07T05:16:38;15.45;;;7.85;;
20283;SDS011;10301;50.832;4.080;2023-05-07T05:19:03;17.60;;;7.18;;
20283;SDS011;10301;50.832;4.080;2023-05-07T05:21:29;15.80;;;7.47;;
20283;SDS011;10301;50.832;4.080;2023-05-07T05:23:56;14.57;;;8.05;;
20283;SDS011;10301;50.832;4.080;2023-05-07T05:26:22;17.00;;;8.95;;
20283;SDS011;10301;50.832;4.080;2023-05-07T05:28:47;17.27;;;9.32;;
20283;SDS011;10301;50.832;4.080;2023-05-07T05:31:13;14.75;;;9.23;;
20283;SDS011;10301;50.832;4.080;2023-05-07T05:33:39;20.20;;;8.63;;
20283;SDS011;10301;50.832;4.080;2023-05-07T05:36:05;15.93;;;9.05;;
20283;SDS011;10301;50.832;4.080;2023-05-07T05:38:31;18.13;;;9.05;;
20283;SDS011;10301;50.832;4.080;2023-05-07T05:40:57;15.05;;;7.80;;
20283;SDS011;10301;50.832;4.080;2023-05-07T05:43:22;20.08;;;9.10;;
20283;SDS011;10301;50.832;4.080;2023-05-07T05:45:48;14.68;;;8.20;;
20283;SDS011;10301;50.832;4.080;2023-05-07T05:48:14;14.27;;;7.85;;
20283;SDS011;10301;50.832;4.080;2023-05-07T05:50:41;18.40;;;8.50;;
20283;SDS011;10301;50.832;4.080;2023-05-07T05:53:07;14.32;;;7.70;;
20283;SDS011;10301;50.832;4.080;2023-05-07T05:55:33;16.90;;;8.32;;
20283;SDS011;10301;50.832;4.080;2023-05-07T05:58:00;14.02;;;7.72;;
20283;SDS011;10301;50.832;4.080;2023-05-07T06:00:26;15.95;;;7.82;;
20283;SDS011;10301;50.832;4.080;2023-05-07T06:02:52;16.38;;;7.97;;
20283;SDS011;10301;50.832;4.080;2023-05-07T06:05:17;18.67;;;7.60;;
20283;SDS011;10301;50.832;4.080;2023-05-07T06:07:43;13.13;;;7.40;;
20283;SDS011;10301;50.832;4.080;2023-05-07T06:10:09;16.58;;;7.65;;
20283;SDS011;10301;50.832;4.080;2023-05-07T06:12:35;17.88;;;7.65;;
20283;SDS011;10301;50.832;4.080;2023-05-07T06:15:00;14.35;;;7.38;;
20283;SDS011;10301;50.832;4.080;2023-05-07T06:17:26;17.15;;;7.53;;
20283;SDS011;10301;50.832;4.080;2023-05-07T06:19:52;14.98;;;8.13;;
20283;SDS011;10301;50.832;4.080;2023-05-07T06:22:18;15.10;;;8.48;;
20283;SDS011;10301;50.832;4.080;2023-05-07T06:24:43;14.90;;;7.88;;
20283;SDS011;10301;50.832;4.080;2023-05-07T06:27:09;18.13;;;8.32;;
20283;SDS011;10301;50.832;4.080;2023-05-07T06:29:35;21.88;;;9.20;;
20283;SDS011;10301;50.832;4.080;2023-05-07T06:32:11;17.88;;;8.93;;
20283;SDS011;10301;50.832;4.080;2023-05-07T06:34:38;15.48;;;8.20;;
20283;SDS011;10301;50.832;4.080;2023-05-07T06:37:05;16.02;;;7.88;;
20283;SDS011;10301;50.832;4.080;2023-05-07T06:39:31;16.90;;;8.13;;
20283;SDS011;10301;50.832;4.080;2023-05-07T06:41:57;17.92;;;8.40;;
20283;SDS011;10301;50.832;4.080;2023-05-07T06:44:23;14.55;;;7.35;;
20283;SDS011;10301;50.832;4.080;2023-05-07T06:46:49;17.17;;;7.38;;
20283;SDS011;10301;50.832;4.080;2023-05-07T06:49:14;17.55;;;7.95;;
20283;SDS011;10301;50.832;4.080;2023-05-07T06:51:41;14.30;;;8.00;;
20283;SDS011;10301;50.832;4.080;2023-05-07T06:54:06;14.57;;;8.10;;
20283;SDS011;10301;50.832;4.080;2023-05-07T06:56:32;13.85;;;8.05;;
20283;SDS011;10301;50.832;4.080;2023-05-07T06:58:59;13.85;;;8.18;;
20283;SDS011;10301;50.832;4.080;2023-05-07T07:01:25;17.10;;;8.02;;
20283;SDS011;10301;50.832;4.080;2023-05-07T07:03:51;17.92;;;8.60;;
20283;SDS011;10301;50.832;4.080;2023-05-07T07:06:17;22.85;;;9.10;;
20283;SDS011;10301;50.832;4.080;2023-05-07T07:08:43;18.48;;;9.10;;
20283;SDS011;10301;50.832;4.080;2023-05-07T07:11:09;20.88;;;8.07;;
20283;SDS011;10301;50.832;4.080;2023-05-07T07:13:35;11.60;;;7.70;;
20283;SDS011;10301;50.832;4.080;2023-05-07T07:16:01;19.10;;;8.45;;
20283;SDS011;10301;50.832;4.080;2023-05-07T07:18:27;19.40;;;9.63;;
20283;SDS011;10301;50.832;4.080;2023-05-07T07:20:52;16.30;;;8.38;;
20283;SDS011;10301;50.832;4.080;2023-05-07T07:23:18;15.38;;;8.20;;
20283;SDS011;10301;50.832;4.080;2023-05-07T07:25:44;17.80;;;8.40;;
20283;SDS011;10301;50.832;4.080;2023-05-07T07:28:09;18.88;;;8.88;;
20283;SDS011;10301;50.832;4.080;2023-05-07T07:30:38;16.20;;;7.75;;
20283;SDS011;10301;50.832;4.080;2023-05-07T07:33:04;16.35;;;8.32;;
20283;SDS011;10301;50.832;4.080;2023-05-07T07:35:30;14.90;;;7.40;;
20283;SDS011;10301;50.832;4.080;2023-05-07T07:37:56;16.00;;;7.57;;
20283;SDS011;10301;50.832;4.080;2023-05-07T07:40:22;15.27;;;7.75;;
20283;SDS011;10301;50.832;4.080;2023-05-07T07:42:48;14.05;;;7.80;;
20283;SDS011;10301;50.832;4.080;2023-05-07T07:45:14;15.25;;;7.28;;
20283;SDS011;10301;50.832;4.080;2023-05-07T07:47:41;12.82;;;7.18;;
20283;SDS011;10301;50.832;4.080;2023-05-07T07:50:07;14.70;;;6.60;;
20283;SDS011;10301;50.832;4.080;2023-05-07T07:52:33;14.27;;;6.93;;
20283;SDS011;10301;50.832;4.080;2023-05-07T07:54:59;13.77;;;6.75;;
20283;SDS011;10301;50.832;4.080;2023-05-07T07:57:25;14.15;;;7.38;;
20283;SDS011;10301;50.832;4.080;2023-05-07T07:59:51;11.48;;;6.38;;
20283;SDS011;10301;50.832;4.080;2023-05-07T08:02:17;15.10;;;7.70;;
20283;SDS011;10301;50.832;4.080;2023-05-07T08:04:43;14.80;;;6.93;;
20283;SDS011;10301;50.832;4.080;2023-05-07T08:07:12;17.20;;;7.25;;
20283;SDS011;10301;50.832;4.080;2023-05-07T08:09:38;13.48;;;6.30;;
20283;SDS011;10301;50.832;4.080;2023-05-07T08:12:04;13.15;;;6.15;;
20283;SDS011;10301;50.832;4.080;2023-05-07T08:14:30;14.25;;;6.47;;
20283;SDS011;10301;50.832;4.080;2023-05-07T08:16:56;11.43;;;5.80;;
20283;SDS011;10301;50.832;4.080;2023-05-07T08:19:22;18.13;;;6.63;;
20283;SDS011;10301;50.832;4.080;2023-05-07T08:21:48;15.38;;;5.28;;
20283;SDS011;10301;50.832;4.080;2023-05-07T08:24:14;12.85;;;4.70;;
20283;SDS011;10301;50.832;4.080;2023-05-07T08:26:40;13.15;;;5.47;;
20283;SDS011;10301;50.832;4.080;2023-05-07T08:29:06;9.68;;;5.10;;
20283;SDS011;10301;50.832;4.080;2023-05-07T08:31:32;11.48;;;4.82;;
20283;SDS011;10301;50.832;4.080;2023-05-07T08:33:58;14.07;;;5.40;;
20283;SDS011;10301;50.832;4.080;2023-05-07T08:36:24;14.85;;;5.25;;
20283;SDS011;10301;50.832;4.080;2023-05-07T08:38:53;11.07;;;4.82;;
20283;SDS011;10301;50.832;4.080;2023-05-07T08:41:20;16.95;;;5.32;;
20283;SDS011;10301;50.832;4.080;2023-05-07T08:43:49;12.45;;;5.32;;
20283;SDS011;10301;50.832;4.080;2023-05-07T08:46:19;12.07;;;5.30;;
20283;SDS011;10301;50.832;4.080;2023-05-07T08:48:49;15.85;;;5.47;;
20283;SDS011;10301;50.832;4.080;2023-05-07T08:51:19;11.40;;;5.97;;
20283;SDS011;10301;50.832;4.080;2023-05-07T08:53:46;14.00;;;6.45;;
20283;SDS011;10301;50.832;4.080;2023-05-07T08:56:13;14.60;;;7.43;;
20283;SDS011;10301;50.832;4.080;2023-05-07T08:58:40;13.45;;;7.68;;
20283;SDS011;10301;50.832;4.080;2023-05-07T09:01:13;13.27;;;8.32;;
20283;SDS011;10301;50.832;4.080;2023-05-07T09:03:39;11.10;;;5.75;;
20283;SDS011;10301;50.832;4.080;2023-05-07T09:06:05;10.15;;;4.70;;
20283;SDS011;10301;50.832;4.080;2023-05-07T09:08:34;14.23;;;5.55;;
20283;SDS011;10301;50.832;4.080;2023-05-07T09:11:00;12.02;;;5.70;;
20283;SDS011;10301;50.832;4.080;2023-05-07T09:13:27;13.15;;;5.68;;
20283;SDS011;10301;50.832;4.080;2023-05-07T09:15:53;11.77;;;6.05;;
20283;SDS011;10301;50.832;4.080;2023-05-07T09:18:18;14.45;;;5.82;;
20283;SDS011;10301;50.832;4.080;2023-05-07T09:20:44;10.60;;;5.50;;
20283;SDS011;10301;50.832;4.080;2023-05-07T09:23:10;11.90;;;5.93;;
20283;SDS011;10301;50.832;4.080;2023-05-07T09:25:36;10.65;;;6.18;;
20283;SDS011;10301;50.832;4.080;2023-05-07T09:28:03;10.07;;;6.82;;
20283;SDS011;10301;50.832;4.080;2023-05-07T09:30:30;11.60;;;6.32;;
20283;SDS011;10301;50.832;4.080;2023-05-07T09:33:00;12.98;;;6.82;;
20283;SDS011;10301;50.832;4.080;2023-05-07T09:35:27;11.57;;;6.50;;
20283;SDS011;10301;50.832;4.080;2023-05-07T09:37:57;13.45;;;6.43;;
20283;SDS011;10301;50.832;4.080;2023-05-07T09:40:28;10.45;;;6.68;;
20283;SDS011;10301;50.832;4.080;2023-05-07T09:42:55;16.65;;;8.20;;
20283;SDS011;10301;50.832;4.080;2023-05-07T09:45:21;15.32;;;7.63;;
20283;SDS011;10301;50.832;4.080;2023-05-07T09:47:53;14.20;;;7.80;;
20283;SDS011;10301;50.832;4.080;2023-05-07T09:50:21;11.70;;;7.38;;
20283;SDS011;10301;50.832;4.080;2023-05-07T09:52:55;11.05;;;7.22;;
20283;SDS011;10301;50.832;4.080;2023-05-07T09:55:21;12.55;;;7.20;;
20283;SDS011;10301;50.832;4.080;2023-05-07T09:57:51;10.82;;;6.78;;
20283;SDS011;10301;50.832;4.080;2023-05-07T10:00:18;14.43;;;8.05;;
20283;SDS011;10301;50.832;4.080;2023-05-07T10:02:50;16.27;;;8.40;;
20283;SDS011;10301;50.832;4.080;2023-05-07T10:05:20;12.10;;;7.72;;
20283;SDS011;10301;50.832;4.080;2023-05-07T10:07:47;14.63;;;7.05;;
20283;SDS011;10301;50.832;4.080;2023-05-07T10:10:14;15.73;;;7.93;;
20283;SDS011;10301;50.832;4.080;2023-05-07T10:12:41;15.02;;;7.78;;
20283;SDS011;10301;50.832;4.080;2023-05-07T10:15:10;13.48;;;7.45;;
20283;SDS011;10301;50.832;4.080;2023-05-07T10:17:37;9.65;;;6.93;;
20283;SDS011;10301;50.832;4.080;2023-05-07T10:20:04;12.10;;;6.97;;
20283;SDS011;10301;50.832;4.080;2023-05-07T10:22:38;11.63;;;7.05;;
20283;SDS011;10301;50.832;4.080;2023-05-07T10:25:09;13.15;;;7.22;;
20283;SDS011;10301;50.832;4.080;2023-05-07T10:27:40;13.48;;;7.32;;
20283;SDS011;10301;50.832;4.080;2023-05-07T10:30:12;10.90;;;6.50;;
20283;SDS011;10301;50.832;4.080;2023-05-07T10:32:53;10.73;;;6.47;;
20283;SDS011;10301;50.832;4.080;2023-05-07T10:35:23;11.98;;;6.10;;
20283;SDS011;10301;50.832;4.080;2023-05-07T10:37:51;14.02;;;6.95;;
20283;SDS011;10301;50.832;4.080;2023-05-07T10:40:17;11.23;;;6.18;;
20283;SDS011;10301;50.832;4.080;2023-05-07T10:43:00;10.05;;;5.85;;
20283;SDS011;10301;50.832;4.080;2023-05-07T10:45:30;10.38;;;4.90;;
20283;SDS011;10301;50.832;4.080;2023-05-07T10:48:12;6.38;;;3.85;;
20283;SDS011;10301;50.832;4.080;2023-05-07T10:50:40;6.38;;;3.50;;
20283;SDS011;10301;50.832;4.080;2023-05-07T10:55:41;7.15;;;3.83;;
20283;SDS011;10301;50.832;4.080;2023-05-07T10:58:22;8.93;;;3.70;;
20283;SDS011;10301;50.832;4.080;2023-05-07T11:00:50;7.13;;;3.20;;
20283;SDS011;10301;50.832;4.080;2023-05-07T11:03:16;7.22;;;3.17;;
20283;SDS011;10301;50.832;4.080;2023-05-07T11:05:42;6.55;;;3.20;;
20283;SDS011;10301;50.832;4.080;2023-05-07T11:08:08;6.82;;;2.83;;
20283;SDS011;10301;50.832;4.080;2023-05-07T11:13:18;6.18;;;2.55;;
20283;SDS011;10301;50.832;4.080;2023-05-07T11:16:16;5.05;;;2.63;;
20283;SDS011;10301;50.832;4.080;2023-05-07T11:18:50;4.43;;;1.50;;
20283;SDS011;10301;50.832;4.080;2023-05-07T11:24:05;5.68;;;2.20;;
20283;SDS011;10301;50.832;4.080;2023-05-07T11:29:13;4.25;;;1.60;;
20283;SDS011;10301;50.832;4.080;2023-05-07T11:31:40;4.45;;;1.60;;
20283;SDS011;10301;50.832;4.080;2023-05-07T11:34:06;5.60;;;2.15;;
20283;SDS011;10301;50.832;4.080;2023-05-07T11:36:33;8.15;;;2.67;;
20283;SDS011;10301;50.832;4.080;2023-05-07T11:38:59;5.88;;;2.70;;
20283;SDS011;10301;50.832;4.080;2023-05-07T11:41:34;5.40;;;2.78;;
20283;SDS011;10301;50.832;4.080;2023-05-07T11:44:01;5.63;;;2.35;;
20283;SDS011;10301;50.832;4.080;2023-05-07T11:46:27;4.60;;;2.72;;
20283;SDS011;10301;50.832;4.080;2023-05-07T11:48:53;6.63;;;3.00;;
20283;SDS011;10301;50.832;4.080;2023-05-07T11:51:20;6.63;;;3.05;;
20283;SDS011;10301;50.832;4.080;2023-05-07T11:53:48;8.07;;;3.95;;
20283;SDS011;10301;50.832;4.080;2023-05-07T11:56:15;5.82;;;3.20;;
20283;SDS011;10301;50.832;4.080;2023-05-07T11:58:42;9.13;;;3.80;;
20283;SDS011;10301;50.832;4.080;2023-05-07T12:01:10;8.45;;;4.45;;
20283;SDS011;10301;50.832;4.080;2023-05-07T12:03:37;7.70;;;4.32;;
20283;SDS011;10301;50.832;4.080;2023-05-07T12:06:07;7.65;;;4.22;;
20283;SDS011;10301;50.832;4.080;2023-05-07T12:08:35;9.15;;;4.65;;
20283;SDS011;10301;50.832;4.080;2023-05-07T12:11:09;9.02;;;5.15;;
20283;SDS011;10301;50.832;4.080;2023-05-07T12:13:42;9.73;;;5.40;;
20283;SDS011;10301;50.832;4.080;2023-05-07T12:16:08;8.05;;;5.07;;
20283;SDS011;10301;50.832;4.080;2023-05-07T12:18:35;8.40;;;5.60;;
20283;SDS011;10301;50.832;4.080;2023-05-07T12:21:02;9.85;;;5.50;;
20283;SDS011;10301;50.832;4.080;2023-05-07T12:23:29;9.35;;;6.32;;
20283;SDS011;10301;50.832;4.080;2023-05-07T12:25:55;7.50;;;5.53;;
20283;SDS011;10301;50.832;4.080;2023-05-07T12:28:21;10.15;;;6.10;;
20283;SDS011;10301;50.832;4.080;2023-05-07T12:30:47;10.10;;;7.05;;
20283;SDS011;10301;50.832;4.080;2023-05-07T12:33:17;9.60;;;6.50;;
20283;SDS011;10301;50.832;4.080;2023-05-07T12:35:47;11.25;;;7.65;;
20283;SDS011;10301;50.832;4.080;2023-05-07T12:38:13;11.82;;;9.02;;
20283;SDS011;10301;50.832;4.080;2023-05-07T12:40:44;11.40;;;8.80;;
20283;SDS011;10301;50.832;4.080;2023-05-07T12:43:15;14.77;;;9.77;;
20283;SDS011;10301;50.832;4.080;2023-05-07T12:45:46;12.93;;;9.32;;
20283;SDS011;10301;50.832;4.080;2023-05-07T12:48:13;16.38;;;9.73;;
20283;SDS011;10301;50.832;4.080;2023-05-07T12:50:39;14.35;;;9.68;;
20283;SDS011;10301;50.832;4.080;2023-05-07T12:53:05;13.73;;;10.23;;
20283;SDS011;10301;50.832;4.080;2023-05-07T12:55:39;10.55;;;8.68;;
20283;SDS011;10301;50.832;4.080;2023-05-07T12:58:14;11.73;;;9.35;;
20283;SDS011;10301;50.832;4.080;2023-05-07T13:00:49;12.10;;;8.25;;
20283;SDS011;10301;50.832;4.080;2023-05-07T13:03:22;12.23;;;8.40;;
20283;SDS011;10301;50.832;4.080;2023-05-07T13:06:03;12.13;;;7.28;;
20283;SDS011;10301;50.832;4.080;2023-05-07T13:08:37;10.02;;;7.50;;
20283;SDS011;10301;50.832;4.080;2023-05-07T13:11:06;11.85;;;7.30;;
20283;SDS011;10301;50.832;4.080;2023-05-07T13:13:34;10.68;;;7.57;;
20283;SDS011;10301;50.832;4.080;2023-05-07T13:16:03;11.30;;;7.05;;
20283;SDS011;10301;50.832;4.080;2023-05-07T13:18:30;10.23;;;6.35;;
20283;SDS011;10301;50.832;4.080;2023-05-07T13:20:57;8.75;;;6.32;;
20283;SDS011;10301;50.832;4.080;2023-05-07T13:23:22;7.50;;;5.03;;
20283;SDS011;10301;50.832;4.080;2023-05-07T13:25:48;7.85;;;4.43;;
20283;SDS011;10301;50.832;4.080;2023-05-07T13:28:15;6.25;;;4.25;;
20283;SDS011;10301;50.832;4.080;2023-05-07T13:30:41;7.65;;;4.25;;
20283;SDS011;10301;50.832;4.080;2023-05-07T13:33:07;7.90;;;5.00;;
20283;SDS011;10301;50.832;4.080;2023-05-07T13:35:34;7.05;;;4.55;;
20283;SDS011;10301;50.832;4.080;2023-05-07T13:38:00;7.05;;;4.25;;
20283;SDS011;10301;50.832;4.080;2023-05-07T13:40:26;9.70;;;4.95;;
20283;SDS011;10301;50.832;4.080;2023-05-07T13:42:51;8.07;;;4.25;;
20283;SDS011;10301;50.832;4.080;2023-05-07T13:45:18;6.88;;;4.30;;
20283;SDS011;10301;50.832;4.080;2023-05-07T13:47:44;9.73;;;4.38;;
20283;SDS011;10301;50.832;4.080;2023-05-07T13:50:10;8.07;;;4.50;;
20283;SDS011;10301;50.832;4.080;2023-05-07T13:52:38;8.95;;;5.60;;
20283;SDS011;10301;50.832;4.080;2023-05-07T13:55:08;8.50;;;5.20;;
20283;SDS011;10301;50.832;4.080;2023-05-07T13:57:37;7.95;;;5.22;;
20283;SDS011;10301;50.832;4.080;2023-05-07T14:00:03;8.00;;;5.30;;
20283;SDS011;10301;50.832;4.080;2023-05-07T14:02:30;9.15;;;5.35;;
20283;SDS011;10301;50.832;4.080;2023-05-07T14:04:56;8.82;;;5.25;;
20283;SDS011;10301;50.832;4.080;2023-05-07T14:07:22;8.30;;;5.13;;
20283;SDS011;10301;50.832;4.080;2023-05-07T14:09:47;6.97;;;5.00;;
20283;SDS011;10301;50.832;4.080;2023-05-07T14:12:13;9.35;;;5.13;;
20283;SDS011;10301;50.832;4.080;2023-05-07T14:14:39;6.82;;;4.95;;
20283;SDS011;10301;50.832;4.080;2023-05-07T14:17:05;9.23;;;5.53;;
20283;SDS011;10301;50.832;4.080;2023-05-07T14:19:30;8.98;;;5.47;;
20283;SDS011;10301;50.832;4.080;2023-05-07T14:21:56;8.13;;;5.07;;
20283;SDS011;10301;50.832;4.080;2023-05-07T14:24:22;7.95;;;5.38;;
20283;SDS011;10301;50.832;4.080;2023-05-07T14:26:48;7.65;;;5.32;;
20283;SDS011;10301;50.832;4.080;2023-05-07T14:29:14;7.38;;;5.35;;
20283;SDS011;10301;50.832;4.080;2023-05-07T14:31:43;8.60;;;5.03;;
20283;SDS011;10301;50.832;4.080;2023-05-07T14:34:10;10.30;;;4.80;;
20283;SDS011;10301;50.832;4.080;2023-05-07T14:36:35;11.38;;;5.40;;
20283;SDS011;10301;50.832;4.080;2023-05-07T14:39:02;7.40;;;5.03;;
20283;SDS011;10301;50.832;4.080;2023-05-07T14:41:28;8.10;;;4.50;;
20283;SDS011;10301;50.832;4.080;2023-05-07T14:43:54;6.63;;;4.85;;
20283;SDS011;10301;50.832;4.080;2023-05-07T14:46:20;8.55;;;5.25;;
20283;SDS011;10301;50.832;4.080;2023-05-07T14:48:45;9.68;;;5.13;;